createdAt,value
2018-08-14T00:00:02.004Z,7.57
2018-08-14T00:02:32.213Z,6.90
2018-08-14T00:05:02.377Z,7.10
2018-08-14T00:07:32.621Z,8.07
2018-08-14T00:10:02.853Z,7.73
2018-08-14T00:12:33.017Z,7.50
2018-08-14T00:15:03.286Z,7.40
2018-08-14T00:17:33.353Z,7.07
2018-08-14T00:20:03.724Z,7.60
2018-08-14T00:22:33.916Z,7.47
2018-08-14T00:25:04.237Z,7.60
2018-08-14T00:27:34.481Z,7.80
2018-08-14T00:30:05.844Z,7.87
2018-08-14T00:32:36.095Z,7.23
2018-08-14T00:35:06.520Z,7.77
2018-08-14T00:37:36.655Z,7.47
2018-08-14T00:40:10.246Z,7.03
2018-08-14T00:42:40.455Z,6.90
2018-08-14T00:45:18.210Z,7.27
2018-08-14T00:47:48.852Z,6.70
2018-08-14T00:50:19.075Z,7.00
2018-08-14T00:52:49.519Z,6.87
2018-08-14T00:55:21.269Z,6.87
2018-08-14T00:57:52.250Z,6.67
2018-08-14T01:00:34.356Z,6.60
2018-08-14T01:03:04.741Z,6.83
2018-08-14T01:05:34.949Z,7.13
2018-08-14T01:08:05.083Z,7.17
2018-08-14T01:10:35.290Z,6.83
2018-08-14T01:13:05.980Z,6.80
2018-08-14T01:15:36.225Z,7.63
2018-08-14T01:18:06.475Z,7.17
2018-08-14T01:20:40.744Z,8.20
2018-08-14T01:23:10.909Z,6.93
2018-08-14T01:25:41.026Z,7.63
2018-08-14T01:28:11.217Z,7.20
2018-08-14T01:30:41.523Z,7.87
2018-08-14T01:33:11.669Z,7.63
2018-08-14T01:35:41.824Z,8.17
2018-08-14T01:38:12.024Z,7.83
2018-08-14T01:40:42.197Z,8.57
2018-08-14T01:43:12.291Z,7.80
2018-08-14T01:45:42.512Z,8.00
2018-08-14T01:48:12.649Z,8.80
2018-08-14T01:50:42.716Z,8.47
2018-08-14T01:53:12.890Z,9.17
2018-08-14T01:55:43.043Z,9.00
2018-08-14T01:58:13.250Z,9.47
2018-08-14T02:00:43.315Z,9.67
2018-08-14T02:03:13.444Z,9.67
2018-08-14T02:05:43.606Z,10.17
2018-08-14T02:08:13.787Z,10.63
2018-08-14T02:10:43.847Z,10.40
2018-08-14T02:13:14.053Z,11.53
2018-08-14T02:15:44.260Z,11.43
2018-08-14T02:18:14.535Z,11.13
2018-08-14T02:20:44.664Z,12.17
2018-08-14T02:23:14.848Z,12.80
2018-08-14T02:25:44.942Z,12.90
2018-08-14T02:28:15.597Z,14.07
2018-08-14T02:30:45.664Z,13.70
2018-08-14T02:33:15.785Z,13.97
2018-08-14T02:35:45.943Z,14.90
2018-08-14T02:38:16.137Z,15.30
2018-08-14T02:40:46.246Z,15.10
2018-08-14T02:43:16.405Z,16.20
2018-08-14T02:45:46.597Z,15.17
2018-08-14T02:48:16.760Z,16.00
2018-08-14T02:50:46.961Z,16.17
2018-08-14T02:53:17.053Z,15.73
2018-08-14T02:55:47.254Z,15.73
2018-08-14T02:58:17.363Z,17.00
2018-08-14T03:00:47.616Z,17.17
2018-08-14T03:03:17.890Z,15.77
2018-08-14T03:05:47.931Z,17.10
2018-08-14T03:08:18.140Z,17.20
2018-08-14T03:10:48.315Z,17.73
2018-08-14T03:13:18.416Z,16.90
2018-08-14T03:15:48.514Z,18.17
2018-08-14T03:18:18.733Z,18.77
2018-08-14T03:20:51.897Z,17.30
2018-08-14T03:23:22.100Z,17.40
2018-08-14T03:25:52.267Z,20.60
2018-08-14T03:28:22.360Z,18.10
2018-08-14T03:30:52.495Z,19.43
2018-08-14T03:33:22.760Z,19.87
2018-08-14T03:35:52.982Z,18.30
2018-08-14T03:38:23.104Z,18.70
2018-08-14T03:40:53.255Z,18.90
2018-08-14T03:43:23.589Z,19.43
2018-08-14T03:45:53.798Z,19.53
2018-08-14T03:48:23.891Z,18.93
2018-08-14T03:50:54.044Z,18.87
2018-08-14T03:53:24.130Z,19.47
2018-08-14T03:55:54.314Z,18.83
2018-08-14T03:58:24.447Z,19.10
2018-08-14T04:01:01.143Z,18.75
2018-08-14T04:03:31.484Z,19.30
2018-08-14T04:06:01.749Z,18.83
2018-08-14T04:08:31.866Z,18.63
2018-08-14T04:11:01.970Z,19.60
2018-08-14T04:13:32.070Z,20.27
2018-08-14T04:16:02.209Z,20.50
2018-08-14T04:18:32.411Z,20.73
2018-08-14T04:21:02.594Z,20.73
2018-08-14T04:23:32.892Z,19.57
2018-08-14T04:26:03.144Z,20.10
2018-08-14T04:28:33.501Z,19.80
2018-08-14T04:31:03.798Z,19.93
2018-08-14T04:33:34.060Z,19.67
2018-08-14T04:36:04.283Z,20.23
2018-08-14T04:38:34.471Z,20.60
2018-08-14T04:41:04.724Z,21.23
2018-08-14T04:43:34.956Z,20.10
2018-08-14T04:46:05.263Z,21.53
2018-08-14T04:48:35.469Z,19.93
2018-08-14T04:51:05.793Z,18.80
2018-08-14T04:53:35.849Z,18.77
2018-08-14T04:56:06.238Z,19.90
2018-08-14T04:58:36.461Z,19.37
2018-08-14T05:01:06.688Z,19.33
2018-08-14T05:03:36.864Z,20.83
2018-08-14T05:06:07.514Z,20.63
2018-08-14T05:08:37.918Z,21.83
2018-08-14T05:11:08.326Z,20.70
2018-08-14T05:13:42.297Z,20.03
2018-08-14T05:16:12.887Z,19.93
2018-08-14T05:18:43.232Z,20.10
2018-08-14T05:21:13.630Z,18.80
2018-08-14T05:23:44.280Z,20.20
2018-08-14T05:26:14.916Z,21.57
2018-08-14T05:28:45.387Z,20.53
2018-08-14T05:31:16.032Z,21.00
2018-08-14T05:33:47.029Z,20.30
2018-08-14T05:36:17.894Z,19.97
2018-08-14T05:38:51.619Z,20.57
2018-08-14T05:41:23.032Z,20.33
2018-08-14T05:43:53.672Z,20.80
2018-08-14T05:46:24.343Z,19.73
2018-08-14T05:48:55.012Z,19.17
2018-08-14T05:51:25.659Z,19.97
2018-08-14T05:53:56.204Z,19.03
2018-08-14T05:56:26.716Z,20.23
2018-08-14T05:58:57.299Z,19.10
2018-08-14T06:01:27.745Z,18.93
2018-08-14T06:03:58.562Z,19.07
2018-08-14T06:06:29.059Z,19.17
2018-08-14T06:08:59.663Z,18.63
2018-08-14T06:11:30.819Z,18.63
2018-08-14T06:14:01.499Z,19.07
2018-08-14T06:16:32.194Z,18.30
2018-08-14T06:19:02.740Z,19.07
2018-08-14T06:21:33.266Z,19.77
2018-08-14T06:24:03.913Z,19.17
2018-08-14T06:26:34.514Z,18.73
2018-08-14T06:29:05.324Z,18.23
2018-08-14T06:31:36.794Z,18.33
2018-08-14T06:34:08.200Z,15.97
2018-08-14T06:36:38.698Z,15.97
2018-08-14T06:39:14.254Z,16.17
2018-08-14T06:41:45.395Z,15.33
2018-08-14T06:44:15.624Z,11.87
2018-08-14T06:46:45.977Z,11.80
2018-08-14T06:49:16.161Z,11.07
2018-08-14T06:51:46.455Z,10.53
2018-08-14T06:54:16.991Z,11.00
2018-08-14T06:56:47.217Z,11.78
2018-08-14T06:59:17.402Z,11.77
2018-08-14T07:01:47.593Z,11.37
2018-08-14T07:04:17.790Z,10.87
2018-08-14T07:06:47.998Z,10.53
2018-08-14T07:09:18.235Z,10.30
2018-08-14T07:11:48.598Z,10.17
2018-08-14T07:14:18.915Z,8.83
2018-08-14T07:16:49.217Z,8.77
2018-08-14T07:19:19.439Z,8.37
2018-08-14T07:21:49.678Z,8.00
2018-08-14T07:24:20.035Z,8.03
2018-08-14T07:26:50.197Z,8.10
2018-08-14T07:29:20.438Z,7.53
2018-08-14T07:31:50.608Z,6.90
2018-08-14T07:34:20.785Z,7.93
2018-08-14T07:36:51.255Z,8.83
2018-08-14T07:39:21.571Z,8.00
2018-08-14T07:41:52.154Z,6.83
2018-08-14T07:44:22.465Z,7.57
2018-08-14T07:46:52.710Z,7.60
2018-08-14T07:49:23.128Z,7.53
2018-08-14T07:51:53.445Z,7.03
2018-08-14T07:54:23.571Z,7.20
2018-08-14T07:56:54.840Z,7.03
2018-08-14T07:59:25.114Z,6.70
2018-08-14T08:01:55.576Z,6.43
2018-08-14T08:04:25.976Z,5.97
2018-08-14T08:06:56.275Z,5.73
2018-08-14T08:09:26.614Z,5.77
2018-08-14T08:11:57.905Z,4.93
2018-08-14T08:14:28.212Z,4.43
2018-08-14T08:16:58.506Z,4.90
2018-08-14T08:19:28.821Z,4.53
2018-08-14T08:21:59.075Z,4.13
2018-08-14T08:24:29.477Z,3.67
2018-08-14T08:27:02.113Z,4.17
2018-08-14T08:29:32.482Z,3.43
2018-08-14T08:32:02.795Z,3.13
2018-08-14T08:34:33.270Z,3.70
2018-08-14T08:37:03.395Z,3.30
2018-08-14T08:39:33.869Z,2.93
2018-08-14T08:42:04.332Z,3.17
2018-08-14T08:44:34.684Z,3.10
2018-08-14T08:47:05.018Z,2.90
2018-08-14T08:49:35.464Z,3.03
2018-08-14T08:52:05.914Z,2.80
2018-08-14T08:54:36.377Z,2.27
2018-08-14T08:57:06.905Z,2.08
2018-08-14T08:59:37.320Z,2.50
2018-08-14T09:02:07.816Z,2.40
2018-08-14T09:04:39.354Z,1.80
2018-08-14T09:07:09.972Z,2.10
2018-08-14T09:09:40.373Z,2.00
2018-08-14T09:12:10.807Z,1.93
2018-08-14T09:14:41.861Z,1.80
2018-08-14T09:17:12.397Z,1.75
2018-08-14T09:19:42.901Z,1.63
2018-08-14T09:22:13.431Z,1.87
2018-08-14T09:24:43.997Z,1.60
2018-08-14T09:27:14.399Z,1.60
2018-08-14T09:29:44.948Z,1.60
2018-08-14T09:32:15.712Z,1.30
2018-08-14T09:34:46.209Z,1.50
2018-08-14T09:37:16.595Z,1.55
2018-08-14T09:39:47.149Z,1.60
2018-08-14T09:42:17.751Z,1.60
2018-08-14T09:44:49.517Z,1.60
2018-08-14T09:47:20.027Z,1.50
2018-08-14T09:49:50.620Z,1.20
2018-08-14T09:52:21.120Z,1.67
2018-08-14T09:54:52.288Z,1.40
2018-08-14T09:57:22.868Z,1.45
2018-08-14T09:59:54.108Z,1.52
2018-08-14T10:02:25.017Z,1.35
2018-08-14T10:05:03.479Z,1.05
2018-08-14T10:07:39.664Z,1.20
2018-08-14T10:10:15.532Z,1.60
2018-08-14T10:12:45.972Z,1.37
2018-08-14T10:15:16.500Z,1.50
2018-08-14T10:17:47.039Z,1.57
2018-08-14T10:20:17.505Z,1.37
2018-08-14T10:22:48.100Z,1.30
2018-08-14T10:25:18.750Z,1.65
2018-08-14T10:27:49.323Z,1.27
2018-08-14T10:30:20.115Z,1.12
2018-08-14T10:32:50.816Z,1.20
2018-08-14T10:35:21.314Z,1.40
2018-08-14T10:37:51.990Z,1.05
2018-08-14T10:40:22.440Z,1.10
2018-08-14T10:42:52.892Z,1.20
2018-08-14T10:45:23.377Z,1.10
2018-08-14T10:47:54.056Z,1.50
2018-08-14T10:50:25.124Z,1.15
2018-08-14T10:52:55.569Z,1.30
2018-08-14T10:55:26.068Z,1.00
2018-08-14T10:57:56.911Z,1.50
2018-08-14T11:00:29.495Z,1.30
2018-08-14T11:03:00.960Z,1.10
2018-08-14T11:05:33.412Z,1.20
2018-08-14T11:08:03.882Z,1.35
2018-08-14T11:10:39.499Z,1.20
2018-08-14T11:13:10.672Z,1.30
2018-08-14T11:15:41.291Z,1.52
2018-08-14T11:18:12.160Z,1.70
2018-08-14T11:20:42.556Z,1.20
2018-08-14T11:23:13.054Z,1.60
2018-08-14T11:25:43.593Z,1.50
2018-08-14T11:28:14.192Z,1.47
2018-08-14T11:30:44.741Z,1.20
2018-08-14T11:33:15.391Z,1.65
2018-08-14T11:35:51.155Z,1.77
2018-08-14T11:38:21.592Z,1.27
2018-08-14T11:40:52.082Z,1.62
2018-08-14T11:43:22.509Z,1.52
2018-08-14T11:45:53.055Z,1.60
2018-08-14T11:48:23.536Z,1.50
2018-08-14T11:50:54.223Z,1.30
2018-08-14T11:53:24.693Z,1.50
2018-08-14T11:55:55.151Z,1.52
2018-08-14T11:58:25.686Z,1.40
2018-08-14T12:00:56.256Z,1.62
2018-08-14T12:03:26.894Z,1.70
2018-08-14T12:05:57.542Z,1.45
2018-08-14T12:08:28.373Z,1.40
2018-08-14T12:10:58.984Z,1.32
2018-08-14T12:13:29.433Z,1.07
2018-08-14T12:16:00.092Z,1.32
2018-08-14T12:18:30.709Z,1.42
2018-08-14T12:21:01.304Z,1.60
2018-08-14T12:23:31.913Z,1.40
2018-08-14T12:26:04.090Z,1.85
2018-08-14T12:28:34.578Z,1.40
2018-08-14T12:31:05.095Z,1.70
2018-08-14T12:33:35.586Z,1.35
2018-08-14T12:36:06.684Z,1.50
2018-08-14T12:38:37.160Z,1.50
2018-08-14T12:41:07.804Z,1.70
2018-08-14T12:43:38.350Z,1.82
2018-08-14T12:46:09.041Z,1.62
2018-08-14T12:48:39.635Z,1.70
2018-08-14T12:51:10.132Z,1.75
2018-08-14T12:53:40.589Z,1.98
2018-08-14T12:56:11.082Z,1.47
2018-08-14T12:58:41.775Z,1.37
2018-08-14T13:01:12.368Z,1.55
2018-08-14T13:03:42.989Z,1.37
2018-08-14T13:06:13.559Z,1.30
2018-08-14T13:08:44.050Z,1.20
2018-08-14T13:11:14.958Z,1.85
2018-08-14T13:13:45.597Z,1.72
2018-08-14T13:16:16.460Z,1.60
2018-08-14T13:18:47.064Z,1.70
2018-08-14T13:21:17.820Z,1.62
2018-08-14T13:23:48.313Z,1.50
2018-08-14T13:26:18.773Z,1.30
2018-08-14T13:28:49.396Z,1.80
2018-08-14T13:31:19.986Z,1.60
2018-08-14T13:33:51.138Z,1.40
2018-08-14T13:36:21.746Z,1.65
2018-08-14T13:38:52.234Z,1.47
2018-08-14T13:41:22.704Z,1.60
2018-08-14T13:43:53.109Z,1.30
2018-08-14T13:46:23.948Z,1.30
2018-08-14T13:48:54.419Z,1.30
2018-08-14T13:51:24.959Z,1.75
2018-08-14T13:53:55.590Z,1.92
2018-08-14T13:56:26.133Z,1.40
2018-08-14T13:58:56.893Z,1.50
2018-08-14T14:01:27.480Z,1.85
2018-08-14T14:03:57.934Z,1.60
2018-08-14T14:06:28.482Z,1.60
2018-08-14T14:08:59.461Z,1.55
2018-08-14T14:11:30.048Z,1.72
2018-08-14T14:14:00.592Z,1.70
2018-08-14T14:16:31.174Z,1.60
2018-08-14T14:19:02.122Z,1.40
2018-08-14T14:21:32.449Z,1.47
2018-08-14T14:24:02.852Z,1.30
2018-08-14T14:26:33.248Z,1.77
2018-08-14T14:29:04.309Z,1.52
2018-08-14T14:31:34.931Z,1.80
2018-08-14T14:34:05.200Z,1.27
2018-08-14T14:36:35.476Z,1.57
2018-08-14T14:39:08.364Z,1.57
2018-08-14T14:41:38.813Z,1.10
2018-08-14T14:44:09.145Z,1.60
2018-08-14T14:46:39.571Z,1.42
2018-08-14T14:49:09.861Z,1.27
2018-08-14T14:51:41.096Z,1.53
2018-08-14T14:54:11.692Z,1.30
2018-08-14T14:56:42.121Z,1.50
2018-08-14T14:59:12.660Z,1.50
2018-08-14T15:01:42.968Z,1.30
2018-08-14T15:04:13.403Z,1.45
2018-08-14T15:06:43.777Z,1.22
2018-08-14T15:09:14.593Z,1.50
2018-08-14T15:11:45.323Z,1.30
2018-08-14T15:14:15.697Z,1.47
2018-08-14T15:16:46.031Z,1.33
2018-08-14T15:19:20.533Z,1.40
2018-08-14T15:21:50.981Z,1.17
2018-08-14T15:24:21.334Z,1.70
2018-08-14T15:26:51.847Z,1.10
2018-08-14T15:29:22.292Z,1.27
2018-08-14T15:31:58.525Z,1.45
2018-08-14T15:34:31.754Z,1.40
2018-08-14T15:37:08.023Z,1.35
2018-08-14T15:39:38.651Z,1.30
2018-08-14T15:42:09.108Z,1.10
2018-08-14T15:44:39.608Z,0.98
2018-08-14T15:47:10.185Z,1.15
2018-08-14T15:49:41.631Z,1.30
2018-08-14T15:52:12.067Z,1.25
2018-08-14T15:54:42.666Z,1.32
2018-08-14T15:57:13.197Z,1.00
2018-08-14T15:59:43.673Z,1.42
2018-08-14T16:02:14.114Z,1.20
2018-08-14T16:04:44.673Z,1.12
2018-08-14T16:07:15.245Z,1.20
2018-08-14T16:09:45.870Z,1.30
2018-08-14T16:12:16.476Z,1.35
2018-08-14T16:14:46.938Z,1.25
2018-08-14T16:17:17.505Z,1.30
2018-08-14T16:19:47.850Z,1.17
2018-08-14T16:22:18.239Z,1.25
2018-08-14T16:24:48.664Z,1.42
2018-08-14T16:27:19.122Z,1.22
2018-08-14T16:29:49.545Z,1.20
2018-08-14T16:32:20.009Z,1.17
2018-08-14T16:35:11.481Z,1.17
2018-08-14T16:37:54.076Z,1.10
2018-08-14T16:40:26.279Z,1.10
2018-08-14T16:42:56.804Z,1.15
2018-08-14T16:45:27.388Z,1.15
2018-08-14T16:47:57.949Z,1.20
2018-08-14T16:50:29.735Z,1.10
2018-08-14T16:53:00.614Z,1.37
2018-08-14T16:55:35.720Z,1.20
2018-08-14T16:58:07.557Z,1.25
2018-08-14T17:03:43.442Z,1.12
2018-08-14T17:06:14.054Z,1.10
2018-08-14T17:08:44.302Z,1.27
2018-08-14T17:11:14.568Z,0.93
2018-08-14T17:13:44.914Z,1.30
2018-08-14T17:16:15.233Z,1.15
2018-08-14T17:18:45.736Z,1.20
2018-08-14T17:21:13.815Z,1.10
2018-08-14T17:23:44.141Z,1.20
2018-08-14T17:26:14.389Z,1.20
2018-08-14T17:28:44.695Z,1.00
2018-08-14T17:31:15.014Z,1.02
2018-08-14T17:33:45.405Z,0.90
2018-08-14T17:36:15.677Z,1.00
2018-08-14T17:38:45.973Z,1.07
2018-08-14T17:41:16.344Z,1.00
2018-08-14T17:43:46.532Z,1.12
2018-08-14T17:46:16.735Z,1.05
2018-08-14T17:48:46.954Z,1.15
2018-08-14T17:51:17.155Z,1.22
2018-08-14T17:53:47.392Z,0.98
2018-08-14T17:56:17.670Z,1.07
2018-08-14T17:58:47.849Z,1.10
2018-08-14T18:01:18.127Z,1.00
2018-08-14T18:03:48.360Z,1.60
2018-08-14T18:06:18.680Z,0.82
2018-08-14T18:08:48.893Z,0.80
2018-08-14T18:11:19.059Z,1.20
2018-08-14T18:13:49.301Z,0.72
2018-08-14T18:16:19.515Z,0.80
2018-08-14T18:18:50.002Z,0.90
2018-08-14T18:21:20.579Z,0.80
2018-08-14T18:23:50.761Z,0.90
2018-08-14T18:26:20.975Z,1.10
2018-08-14T18:28:51.198Z,1.10
2018-08-14T18:31:21.720Z,1.10
2018-08-14T18:33:51.905Z,1.20
2018-08-14T18:36:22.061Z,1.15
2018-08-14T18:38:52.277Z,1.25
2018-08-14T18:41:22.472Z,1.52
2018-08-14T18:43:52.717Z,1.50
2018-08-14T18:46:55.659Z,1.32
2018-08-14T18:49:28.493Z,1.20
2018-08-14T18:52:29.640Z,1.20
2018-08-14T18:55:05.346Z,1.27
2018-08-14T18:57:35.721Z,1.10
2018-08-14T19:00:09.455Z,1.20
2018-08-14T19:02:40.148Z,1.20
2018-08-14T19:05:10.941Z,1.03
2018-08-14T19:07:41.176Z,1.20
2018-08-14T19:10:13.132Z,1.22
2018-08-14T19:12:44.191Z,1.10
2018-08-14T19:15:19.540Z,1.30
2018-08-14T19:17:50.056Z,1.25
2018-08-14T19:20:20.238Z,1.07
2018-08-14T19:22:51.530Z,1.27
2018-08-14T19:25:21.920Z,1.30
2018-08-14T19:27:52.049Z,1.20
2018-08-14T19:30:22.175Z,1.30
2018-08-14T19:32:52.840Z,1.22
2018-08-14T19:35:24.292Z,1.20
2018-08-14T19:37:54.639Z,1.20
2018-08-14T19:40:25.991Z,1.20
2018-08-14T19:42:56.349Z,1.20
2018-08-14T19:45:26.680Z,1.20
2018-08-14T19:47:56.949Z,0.93
2018-08-14T19:50:27.172Z,1.20
2018-08-14T19:52:57.356Z,1.10
2018-08-14T19:55:27.708Z,1.00
2018-08-14T19:57:57.974Z,1.15
2018-08-14T20:00:29.227Z,1.15
2018-08-14T20:02:59.627Z,1.20
2018-08-14T20:05:29.921Z,1.20
2018-08-14T20:08:08.589Z,1.20
2018-08-14T20:10:40.015Z,1.10
2018-08-14T20:13:11.379Z,1.20
2018-08-14T20:15:46.855Z,1.27
2018-08-14T20:18:17.094Z,1.22
2018-08-14T20:20:47.354Z,1.20
2018-08-14T20:23:17.642Z,1.00
2018-08-14T20:25:47.998Z,1.10
2018-08-14T20:28:18.367Z,1.30
2018-08-14T20:30:48.619Z,1.12
2018-08-14T20:33:18.961Z,1.37
2018-08-14T20:35:52.738Z,1.10
2018-08-14T20:38:24.268Z,1.55
2018-08-14T20:40:54.609Z,1.37
2018-08-14T20:43:26.314Z,1.30
2018-08-14T20:45:56.558Z,1.20
2018-08-14T20:48:26.879Z,1.20
2018-08-14T20:50:57.175Z,1.75
2018-08-14T20:53:27.734Z,1.40
2018-08-14T20:55:57.958Z,1.40
2018-08-14T20:58:28.229Z,1.60
2018-08-14T21:00:58.778Z,1.50
2018-08-14T21:03:29.261Z,1.45
2018-08-14T21:05:59.565Z,1.50
2018-08-14T21:08:30.749Z,1.30
2018-08-14T21:11:01.093Z,1.20
2018-08-14T21:13:31.388Z,1.30
2018-08-14T21:16:06.755Z,1.10
2018-08-14T21:18:37.493Z,1.30
2018-08-14T21:21:07.658Z,1.30
2018-08-14T21:23:38.790Z,1.27
2018-08-14T21:26:09.109Z,1.30
2018-08-14T21:28:39.284Z,1.42
2018-08-14T21:31:09.465Z,1.50
2018-08-14T21:33:39.710Z,1.50
2018-08-14T21:36:10.005Z,1.65
2018-08-14T21:38:40.307Z,1.65
2018-08-14T21:41:10.563Z,1.60
2018-08-14T21:43:40.759Z,1.40
2018-08-14T21:46:10.981Z,1.72
2018-08-14T21:48:41.210Z,1.37
2018-08-14T21:51:11.434Z,1.57
2018-08-14T21:53:41.680Z,1.70
2018-08-14T21:56:11.993Z,1.77
2018-08-14T21:58:42.907Z,1.82
2018-08-14T22:01:13.715Z,1.90
2018-08-14T22:03:46.368Z,1.95
2018-08-14T22:06:17.230Z,1.70
2018-08-14T22:08:47.525Z,1.77
2018-08-14T22:11:17.843Z,1.85
2018-08-14T22:13:48.094Z,1.85
2018-08-14T22:16:18.372Z,1.95
2018-08-14T22:18:48.512Z,2.02
2018-08-14T22:21:18.881Z,2.00
2018-08-14T22:23:49.082Z,2.02
2018-08-14T22:26:19.179Z,2.10
2018-08-14T22:28:49.349Z,2.15
2018-08-14T22:31:19.630Z,2.17
2018-08-14T22:33:49.880Z,2.05
2018-08-14T22:36:20.058Z,1.75
2018-08-14T22:38:50.289Z,1.77
2018-08-14T22:41:20.453Z,2.08
2018-08-14T22:43:50.616Z,2.30
2018-08-14T22:46:21.265Z,2.10
2018-08-14T22:48:51.460Z,1.98
2018-08-14T22:51:21.931Z,2.00
2018-08-14T22:53:52.123Z,2.10
2018-08-14T22:56:22.335Z,1.92
2018-08-14T22:58:52.452Z,2.50
2018-08-14T23:01:22.591Z,2.30
2018-08-14T23:03:54.382Z,2.15
2018-08-14T23:06:24.662Z,2.00
2018-08-14T23:08:54.895Z,2.30
2018-08-14T23:11:25.077Z,2.20
2018-08-14T23:13:55.276Z,2.40
2018-08-14T23:16:25.584Z,2.50
2018-08-14T23:18:55.901Z,3.30
2018-08-14T23:21:26.067Z,3.50
2018-08-14T23:23:56.303Z,3.35
2018-08-14T23:26:26.495Z,3.70
2018-08-14T23:28:56.728Z,3.65
2018-08-14T23:31:27.098Z,4.37
2018-08-14T23:33:57.261Z,4.60
2018-08-14T23:36:27.419Z,5.03
2018-08-14T23:38:57.673Z,4.50
2018-08-14T23:41:27.839Z,5.20
2018-08-14T23:43:57.990Z,4.57
2018-08-14T23:46:28.255Z,5.07
2018-08-14T23:48:58.392Z,4.67
2018-08-14T23:51:31.339Z,4.87
2018-08-14T23:54:01.732Z,4.57
2018-08-14T23:56:32.000Z,4.27
2018-08-14T23:59:02.029Z,4.30
